createdAt,value
2023-02-09T00:00:01.935Z,99.78
2023-02-09T00:02:29.085Z,99.91
2023-02-09T00:04:55.825Z,100.39
2023-02-09T00:07:22.552Z,100.40
2023-02-09T00:09:51.298Z,100.16
2023-02-09T00:12:37.789Z,99.97
2023-02-09T00:15:06.226Z,100.20
2023-02-09T00:17:37.151Z,99.94
2023-02-09T00:20:06.136Z,100.18
2023-02-09T00:22:33.141Z,100.90
2023-02-09T00:25:00.089Z,100.28
2023-02-09T00:27:26.778Z,100.22
2023-02-09T00:29:53.443Z,100.47
2023-02-09T00:32:20.176Z,101.03
2023-02-09T00:34:46.894Z,101.03
2023-02-09T00:37:13.513Z,101.38
2023-02-09T00:39:40.256Z,101.56
2023-02-09T00:42:07.011Z,101.87
2023-02-09T00:44:35.580Z,102.09
2023-02-09T00:47:02.958Z,102.04
2023-02-09T00:49:30.388Z,102.24
2023-02-09T00:51:57.577Z,102.15
2023-02-09T00:54:24.556Z,102.66
2023-02-09T00:56:51.272Z,102.74
2023-02-09T00:59:18.093Z,102.84
2023-02-09T01:01:44.839Z,102.33
2023-02-09T01:04:13.192Z,101.89
2023-02-09T01:06:39.937Z,101.86
2023-02-09T01:09:06.623Z,101.80
2023-02-09T01:11:33.352Z,101.62
2023-02-09T01:14:00.994Z,101.64
2023-02-09T01:16:31.701Z,101.79
2023-02-09T01:19:00.724Z,101.96
2023-02-09T01:21:27.855Z,101.94
2023-02-09T01:23:55.107Z,101.96
2023-02-09T01:26:22.046Z,101.95
2023-02-09T01:28:51.234Z,102.18
2023-02-09T01:31:32.378Z,101.95
2023-02-09T01:34:01.401Z,101.92
2023-02-09T01:36:29.572Z,101.64
2023-02-09T01:38:58.869Z,102.11
2023-02-09T01:41:26.660Z,102.25
2023-02-09T01:43:59.652Z,102.37
2023-02-09T01:46:32.272Z,101.93
2023-02-09T01:49:06.883Z,101.61
2023-02-09T01:51:38.219Z,101.90
2023-02-09T01:54:12.275Z,101.39
2023-02-09T01:56:43.817Z,101.29
2023-02-09T01:59:11.268Z,101.09
2023-02-09T02:01:38.284Z,101.66
2023-02-09T02:04:06.187Z,101.58
2023-02-09T02:06:33.473Z,101.80
2023-02-09T02:09:06.625Z,102.06
2023-02-09T02:11:33.722Z,102.18
2023-02-09T02:14:00.472Z,102.57
2023-02-09T02:16:52.564Z,102.14
2023-02-09T02:19:32.690Z,102.25
2023-02-09T02:22:24.421Z,102.55
2023-02-09T02:24:57.045Z,102.22
2023-02-09T02:28:01.761Z,102.51
2023-02-09T02:30:37.647Z,102.32
2023-02-09T02:33:07.289Z,102.60
2023-02-09T02:35:43.238Z,102.52
2023-02-09T02:38:13.181Z,102.51
2023-02-09T02:40:58.190Z,102.30
2023-02-09T02:44:06.196Z,102.11
2023-02-09T02:46:43.700Z,102.35
2023-02-09T02:49:26.148Z,102.06
2023-02-09T02:51:56.658Z,101.90
2023-02-09T02:54:31.489Z,102.35
2023-02-09T02:57:03.486Z,102.54
2023-02-09T02:59:34.044Z,102.64
2023-02-09T03:02:07.283Z,102.47
2023-02-09T03:04:37.038Z,102.15
2023-02-09T03:07:07.757Z,102.15
2023-02-09T03:09:34.681Z,102.06
2023-02-09T03:12:48.862Z,101.56
2023-02-09T03:15:49.525Z,102.02
2023-02-09T03:18:28.156Z,102.04
2023-02-09T03:20:56.847Z,102.34
2023-02-09T03:23:42.031Z,102.25
2023-02-09T03:26:17.534Z,102.22
2023-02-09T03:28:48.794Z,102.29
2023-02-09T03:31:15.948Z,101.77
2023-02-09T03:33:43.034Z,101.54
2023-02-09T03:36:18.380Z,101.96
2023-02-09T03:38:45.350Z,102.06
2023-02-09T03:41:12.072Z,102.44
2023-02-09T03:43:57.284Z,102.47
2023-02-09T03:46:23.970Z,102.47
2023-02-09T03:48:50.785Z,102.54
2023-02-09T03:51:17.458Z,102.58
2023-02-09T03:53:44.129Z,102.83
2023-02-09T03:56:10.813Z,102.49
2023-02-09T03:58:37.803Z,102.73
2023-02-09T04:01:07.746Z,102.82
2023-02-09T04:03:34.955Z,103.07
2023-02-09T04:06:02.122Z,103.15
2023-02-09T04:08:30.067Z,103.15
2023-02-09T04:10:59.889Z,103.24
2023-02-09T04:13:26.856Z,103.11
2023-02-09T04:15:54.108Z,103.10
2023-02-09T04:18:21.195Z,103.01
2023-02-09T04:20:48.327Z,103.12
2023-02-09T04:23:16.492Z,103.05
2023-02-09T04:25:43.318Z,103.64
2023-02-09T04:28:10.200Z,103.57
2023-02-09T04:30:37.049Z,103.55
2023-02-09T04:33:04.089Z,104.05
2023-02-09T04:35:30.818Z,103.63
2023-02-09T04:37:57.615Z,103.77
2023-02-09T04:40:24.270Z,103.60
2023-02-09T04:42:51.016Z,103.67
2023-02-09T04:45:17.771Z,103.68
2023-02-09T04:47:44.441Z,103.95
2023-02-09T04:50:11.348Z,103.82
2023-02-09T04:52:38.080Z,103.84
2023-02-09T04:55:05.063Z,103.83
2023-02-09T04:57:50.313Z,103.73
2023-02-09T05:00:17.297Z,103.21
2023-02-09T05:02:44.005Z,102.95
2023-02-09T05:05:10.704Z,103.12
2023-02-09T05:07:37.437Z,103.30
2023-02-09T05:10:04.702Z,103.33
2023-02-09T05:12:31.466Z,103.16
2023-02-09T05:14:58.140Z,102.96
2023-02-09T05:17:24.916Z,103.00
2023-02-09T05:19:51.690Z,102.73
2023-02-09T05:22:18.532Z,102.55
2023-02-09T05:24:45.177Z,102.80
2023-02-09T05:27:11.838Z,102.82
2023-02-09T05:29:38.540Z,102.92
2023-02-09T05:32:05.538Z,103.24
2023-02-09T05:34:32.452Z,102.89
2023-02-09T05:36:59.136Z,102.47
2023-02-09T05:39:26.143Z,102.54
2023-02-09T05:42:11.298Z,103.02
2023-02-09T05:44:38.162Z,103.36
2023-02-09T05:47:05.292Z,103.38
2023-02-09T05:49:32.027Z,103.16
2023-02-09T05:51:58.708Z,105.06
2023-02-09T05:54:25.445Z,102.31
2023-02-09T05:56:52.242Z,103.75
2023-02-09T05:59:19.088Z,103.43
2023-02-09T06:01:45.757Z,103.45
2023-02-09T06:04:12.428Z,103.66
2023-02-09T06:06:39.254Z,103.52
2023-02-09T06:09:06.119Z,103.96
2023-02-09T06:11:33.389Z,103.83
2023-02-09T06:14:00.205Z,103.86
2023-02-09T06:16:27.134Z,103.47
2023-02-09T06:18:54.009Z,103.73
2023-02-09T06:21:20.683Z,103.74
2023-02-09T06:23:47.609Z,103.30
2023-02-09T06:26:17.238Z,103.28
2023-02-09T06:28:44.639Z,103.38
2023-02-09T06:31:12.003Z,102.79
2023-02-09T06:33:39.353Z,102.49
2023-02-09T06:36:07.428Z,102.54
2023-02-09T06:38:35.942Z,102.79
2023-02-09T06:41:03.304Z,102.78
2023-02-09T06:43:29.993Z,102.62
2023-02-09T06:45:57.354Z,102.38
2023-02-09T06:48:25.104Z,102.31
2023-02-09T06:50:52.079Z,102.60
2023-02-09T06:53:19.059Z,103.42
2023-02-09T06:55:46.016Z,103.62
2023-02-09T06:58:12.909Z,103.32
2023-02-09T07:00:39.610Z,102.70
2023-02-09T07:03:06.364Z,102.19
2023-02-09T07:05:33.163Z,102.37
2023-02-09T07:08:00.138Z,102.69
2023-02-09T07:10:27.186Z,102.67
2023-02-09T07:12:57.325Z,102.96
2023-02-09T07:15:24.125Z,100.96
2023-02-09T07:17:50.788Z,100.47
2023-02-09T07:20:17.613Z,100.09
2023-02-09T07:22:44.385Z,99.92
2023-02-09T07:25:11.324Z,99.61
2023-02-09T07:27:38.210Z,99.61
2023-02-09T07:30:05.373Z,99.55
2023-02-09T07:32:33.257Z,98.77
2023-02-09T07:35:02.842Z,98.61
2023-02-09T07:37:29.743Z,98.92
2023-02-09T07:39:56.566Z,99.26
2023-02-09T07:42:23.550Z,98.47
2023-02-09T07:44:50.241Z,98.69
2023-02-09T07:47:17.095Z,97.83
2023-02-09T07:49:43.908Z,103.37
2023-02-09T07:52:10.987Z,96.62
2023-02-09T07:54:37.664Z,96.70
2023-02-09T07:57:04.439Z,98.69
2023-02-09T07:59:31.150Z,95.20
2023-02-09T08:01:58.443Z,95.35
2023-02-09T08:04:25.105Z,94.92
2023-02-09T08:06:53.240Z,94.63
2023-02-09T08:09:19.982Z,94.14
2023-02-09T08:11:54.570Z,93.56
2023-02-09T08:14:31.851Z,92.75
2023-02-09T08:17:23.093Z,92.15
2023-02-09T08:19:54.240Z,91.70
2023-02-09T08:22:22.295Z,91.34
2023-02-09T08:24:49.012Z,91.28
2023-02-09T08:27:15.920Z,90.21
2023-02-09T08:29:42.681Z,89.14
2023-02-09T08:32:09.401Z,89.50
2023-02-09T08:34:36.250Z,88.81
2023-02-09T08:37:03.017Z,88.92
2023-02-09T08:39:29.834Z,88.85
2023-02-09T08:41:56.540Z,88.65
2023-02-09T08:44:23.297Z,88.36
2023-02-09T08:46:50.228Z,87.58
2023-02-09T08:49:17.174Z,86.45
2023-02-09T08:51:43.848Z,86.89
2023-02-09T08:54:10.734Z,86.27
2023-02-09T08:56:37.608Z,85.19
2023-02-09T08:59:04.924Z,85.50
2023-02-09T09:01:31.784Z,84.48
2023-02-09T09:03:58.625Z,84.06
2023-02-09T09:06:29.713Z,83.11
2023-02-09T09:08:57.084Z,82.46
2023-02-09T09:11:24.105Z,82.40
2023-02-09T09:13:50.898Z,82.65
2023-02-09T09:16:20.661Z,82.26
2023-02-09T09:18:48.474Z,83.15
2023-02-09T09:21:17.277Z,80.44
2023-02-09T09:23:45.076Z,79.85
2023-02-09T09:26:12.098Z,78.98
2023-02-09T09:28:39.009Z,77.95
2023-02-09T09:31:14.842Z,78.07
2023-02-09T09:33:42.289Z,77.69
2023-02-09T09:36:10.045Z,76.22
2023-02-09T09:38:38.549Z,76.17
2023-02-09T09:41:16.740Z,74.51
2023-02-09T09:43:43.875Z,74.33
2023-02-09T09:46:17.332Z,74.54
2023-02-09T09:48:47.087Z,73.80
2023-02-09T09:51:40.740Z,72.40
2023-02-09T09:54:23.420Z,72.09
2023-02-09T09:56:52.127Z,71.87
2023-02-09T09:59:26.348Z,71.56
2023-02-09T10:01:55.105Z,71.08
2023-02-09T10:04:22.169Z,69.74
2023-02-09T10:06:59.123Z,68.30
2023-02-09T10:09:42.157Z,70.12
2023-02-09T10:12:24.925Z,67.83
2023-02-09T10:14:51.729Z,68.71
2023-02-09T10:17:18.661Z,67.91
2023-02-09T10:20:06.455Z,65.18
2023-02-09T10:22:33.200Z,64.74
2023-02-09T10:25:02.055Z,63.87
2023-02-09T10:27:31.261Z,62.78
2023-02-09T10:30:28.071Z,62.02
2023-02-09T10:32:59.845Z,62.88
2023-02-09T10:35:32.419Z,62.98
2023-02-09T10:38:01.979Z,62.59
2023-02-09T10:40:32.573Z,62.54
2023-02-09T10:43:02.801Z,63.11
2023-02-09T10:45:37.675Z,62.94
2023-02-09T10:48:13.418Z,61.14
2023-02-09T10:50:52.318Z,68.10
2023-02-09T10:53:24.088Z,62.39
2023-02-09T10:55:58.183Z,62.10
2023-02-09T10:58:32.068Z,62.75
2023-02-09T11:01:16.400Z,63.50
2023-02-09T11:04:17.552Z,62.84
2023-02-09T11:06:58.898Z,61.14
2023-02-09T11:09:37.877Z,62.25
2023-02-09T11:12:06.028Z,61.51
2023-02-09T11:14:32.736Z,60.51
2023-02-09T11:17:37.462Z,59.36
2023-02-09T11:20:33.610Z,60.59
2023-02-09T11:23:31.509Z,60.84
2023-02-09T11:26:09.098Z,59.34
2023-02-09T11:28:50.799Z,59.35
2023-02-09T11:31:39.473Z,57.70
2023-02-09T11:34:18.486Z,57.94
2023-02-09T11:36:57.303Z,56.42
2023-02-09T11:39:38.255Z,56.90
2023-02-09T11:42:39.465Z,56.71
2023-02-09T11:45:21.490Z,58.06
2023-02-09T11:48:26.046Z,58.04
2023-02-09T11:51:11.855Z,57.84
2023-02-09T11:54:04.833Z,58.33
2023-02-09T11:56:37.357Z,57.71
2023-02-09T11:59:10.570Z,58.10
2023-02-09T12:01:43.295Z,58.22
2023-02-09T12:04:37.376Z,59.48
2023-02-09T12:07:33.027Z,59.41
2023-02-09T12:10:06.088Z,58.70
2023-02-09T12:12:44.889Z,59.61
2023-02-09T12:15:19.812Z,60.69
2023-02-09T12:17:49.732Z,59.60
2023-02-09T12:20:28.331Z,60.59
2023-02-09T12:23:10.355Z,61.34
2023-02-09T12:26:00.429Z,60.38
2023-02-09T12:28:27.138Z,59.08
2023-02-09T12:30:53.952Z,59.41
2023-02-09T12:33:23.685Z,60.29
2023-02-09T12:36:16.017Z,60.28
2023-02-09T12:38:56.491Z,61.25
2023-02-09T12:41:23.764Z,58.27
2023-02-09T12:43:51.457Z,57.70
2023-02-09T12:46:41.538Z,57.06
2023-02-09T12:49:11.164Z,57.85
2023-02-09T12:51:53.196Z,58.67
2023-02-09T12:54:56.722Z,59.14
2023-02-09T12:57:23.949Z,58.99
2023-02-09T12:59:51.042Z,59.26
2023-02-09T13:02:39.135Z,60.35
2023-02-09T13:05:17.563Z,60.77
2023-02-09T13:07:53.772Z,61.20
2023-02-09T13:10:26.654Z,61.07
2023-02-09T13:13:31.971Z,62.08
2023-02-09T13:16:25.780Z,62.89
2023-02-09T13:19:17.788Z,62.63
2023-02-09T13:22:16.869Z,63.51
2023-02-09T13:24:54.997Z,64.82
2023-02-09T13:27:24.620Z,64.29
2023-02-09T13:29:56.721Z,65.40
2023-02-09T13:32:55.658Z,65.64
2023-02-09T13:35:29.025Z,66.27
2023-02-09T13:37:58.839Z,67.28
2023-02-09T13:40:30.039Z,67.49
2023-02-09T13:43:11.261Z,67.25
2023-02-09T13:45:50.371Z,68.13
2023-02-09T13:48:24.081Z,68.42
2023-02-09T13:50:52.446Z,68.67
2023-02-09T13:53:22.820Z,68.58
2023-02-09T13:55:53.062Z,68.45
2023-02-09T13:58:30.127Z,69.73
2023-02-09T14:01:02.627Z,70.23
2023-02-09T14:03:46.893Z,70.04
2023-02-09T14:06:31.667Z,70.71
2023-02-09T14:09:00.397Z,70.87
2023-02-09T14:11:41.806Z,71.43
2023-02-09T14:14:15.862Z,72.11
2023-02-09T14:16:53.114Z,73.80
2023-02-09T14:19:31.783Z,75.36
2023-02-09T14:21:58.579Z,75.23
2023-02-09T14:24:26.955Z,74.88
2023-02-09T14:26:59.964Z,75.34
2023-02-09T14:29:30.164Z,75.96
2023-02-09T14:32:04.028Z,77.33
2023-02-09T14:34:37.172Z,76.81
2023-02-09T14:37:24.092Z,76.92
2023-02-09T14:40:06.278Z,77.92
2023-02-09T14:42:34.857Z,77.72
2023-02-09T14:45:38.734Z,78.63
2023-02-09T14:48:26.913Z,78.80
2023-02-09T14:50:59.175Z,78.62
2023-02-09T14:53:31.911Z,80.56
2023-02-09T14:55:59.357Z,80.30
2023-02-09T14:58:27.813Z,78.72
2023-02-09T15:00:56.687Z,79.11
2023-02-09T15:03:23.626Z,79.59
2023-02-09T15:05:54.523Z,80.28
2023-02-09T15:08:22.714Z,80.94
2023-02-09T15:10:57.423Z,80.29
2023-02-09T15:13:24.470Z,80.57
2023-02-09T15:15:51.235Z,80.17
2023-02-09T15:18:24.492Z,80.43
2023-02-09T15:20:51.744Z,80.80
2023-02-09T15:23:19.160Z,81.59
2023-02-09T15:25:46.462Z,81.53
2023-02-09T15:28:28.830Z,81.39
2023-02-09T15:30:56.871Z,82.23
2023-02-09T15:33:25.636Z,82.97
2023-02-09T15:35:52.686Z,83.42
2023-02-09T15:38:19.829Z,82.97
2023-02-09T15:41:07.890Z,82.59
2023-02-09T15:43:54.120Z,82.55
2023-02-09T15:46:39.843Z,81.55
2023-02-09T15:49:07.492Z,82.18
2023-02-09T15:51:36.879Z,82.45
2023-02-09T15:54:07.612Z,82.75
2023-02-09T15:56:36.634Z,82.64
2023-02-09T15:59:05.552Z,83.40
2023-02-09T16:01:35.863Z,83.55
2023-02-09T16:04:13.904Z,82.77
2023-02-09T16:06:49.628Z,82.80
2023-02-09T16:09:23.574Z,82.75
2023-02-09T16:11:50.337Z,81.63
2023-02-09T16:14:24.304Z,82.20
2023-02-09T16:16:51.303Z,81.67
2023-02-09T16:19:19.103Z,81.98
2023-02-09T16:21:51.784Z,82.43
2023-02-09T16:24:41.039Z,81.71
2023-02-09T16:27:15.084Z,82.20
2023-02-09T16:29:42.294Z,82.65
2023-02-09T16:32:22.440Z,82.13
2023-02-09T16:34:49.887Z,82.62
2023-02-09T16:37:23.554Z,82.49
2023-02-09T16:39:50.437Z,81.38
2023-02-09T16:42:17.666Z,81.14
2023-02-09T16:44:44.973Z,80.83
2023-02-09T16:47:19.010Z,81.17
2023-02-09T16:50:00.878Z,81.88
2023-02-09T16:52:30.274Z,81.75
2023-02-09T16:55:00.390Z,81.75
2023-02-09T16:57:28.646Z,80.33
2023-02-09T16:59:55.890Z,79.62
2023-02-09T17:02:31.695Z,79.70
2023-02-09T17:04:59.386Z,79.86
2023-02-09T17:07:35.666Z,79.43
2023-02-09T17:10:18.580Z,79.24
2023-02-09T17:12:45.752Z,79.11
2023-02-09T17:15:28.852Z,79.76
2023-02-09T17:18:02.098Z,79.72
2023-02-09T17:20:36.928Z,78.92
2023-02-09T17:23:05.028Z,78.92
2023-02-09T17:25:31.956Z,79.03
2023-02-09T17:27:58.865Z,79.21
2023-02-09T17:30:25.688Z,79.78
2023-02-09T17:32:59.804Z,79.47
2023-02-09T17:35:53.030Z,79.43
2023-02-09T17:38:27.898Z,79.88
2023-02-09T17:40:56.440Z,80.11
2023-02-09T17:43:24.174Z,80.17
2023-02-09T17:45:51.952Z,80.12
2023-02-09T17:48:22.737Z,79.20
2023-02-09T17:50:52.859Z,79.62
2023-02-09T17:53:23.766Z,79.37
2023-02-09T17:55:51.630Z,78.95
2023-02-09T17:58:18.581Z,80.14
2023-02-09T18:00:46.123Z,78.79
2023-02-09T18:03:21.729Z,78.66
2023-02-09T18:05:58.512Z,78.39
2023-02-09T18:08:27.262Z,78.65
2023-02-09T18:10:58.028Z,79.11
2023-02-09T18:13:27.025Z,79.21
2023-02-09T18:15:53.881Z,79.82
2023-02-09T18:18:22.570Z,80.40
2023-02-09T18:20:50.836Z,80.54
2023-02-09T18:23:17.625Z,80.75
2023-02-09T18:25:46.660Z,81.47
2023-02-09T18:28:14.537Z,81.64
2023-02-09T18:30:42.231Z,82.12
2023-02-09T18:33:09.944Z,82.49
2023-02-09T18:35:41.857Z,83.26
2023-02-09T18:38:11.293Z,83.67
2023-02-09T18:40:39.129Z,84.38
2023-02-09T18:43:06.966Z,84.81
2023-02-09T18:45:34.534Z,85.41
2023-02-09T18:48:01.773Z,86.30
2023-02-09T18:50:31.075Z,86.20
2023-02-09T18:53:02.473Z,86.66
2023-02-09T18:55:32.004Z,87.03
2023-02-09T18:58:05.124Z,87.61
2023-02-09T19:00:32.684Z,87.96
2023-02-09T19:02:59.593Z,88.32
2023-02-09T19:05:29.549Z,88.77
2023-02-09T19:07:57.154Z,89.13
2023-02-09T19:10:25.026Z,89.25
2023-02-09T19:12:52.110Z,89.86
2023-02-09T19:15:19.107Z,89.82
2023-02-09T19:17:46.351Z,90.05
2023-02-09T19:20:17.480Z,91.15
2023-02-09T19:22:47.219Z,91.22
2023-02-09T19:25:14.895Z,92.32
2023-02-09T19:27:42.619Z,92.97
2023-02-09T19:30:14.196Z,93.53
2023-02-09T19:32:41.096Z,94.25
2023-02-09T19:35:08.476Z,94.80
2023-02-09T19:37:36.269Z,95.15
2023-02-09T19:40:17.309Z,95.68
2023-02-09T19:42:44.089Z,96.36
2023-02-09T19:45:11.051Z,96.75
2023-02-09T19:47:37.968Z,97.49
2023-02-09T19:50:05.206Z,97.82
2023-02-09T19:52:31.972Z,97.97
2023-02-09T19:54:58.617Z,98.58
2023-02-09T19:57:25.355Z,98.72
2023-02-09T19:59:53.306Z,98.99
2023-02-09T20:02:19.986Z,98.60
2023-02-09T20:04:46.718Z,99.58
2023-02-09T20:07:14.799Z,100.12
2023-02-09T20:09:41.812Z,100.21
2023-02-09T20:12:08.782Z,100.68
2023-02-09T20:14:35.488Z,101.09
2023-02-09T20:17:02.230Z,101.50
2023-02-09T20:19:29.329Z,101.94
2023-02-09T20:21:56.171Z,102.06
2023-02-09T20:24:23.534Z,102.83
2023-02-09T20:26:50.243Z,102.67
2023-02-09T20:29:17.033Z,103.11
2023-02-09T20:31:44.575Z,103.75
2023-02-09T20:34:13.802Z,104.52
2023-02-09T20:36:42.259Z,104.15
2023-02-09T20:39:13.424Z,104.57
2023-02-09T20:42:00.156Z,104.37
2023-02-09T20:44:45.997Z,104.14
2023-02-09T20:47:12.690Z,104.39
2023-02-09T20:49:40.565Z,104.40
2023-02-09T20:52:07.748Z,104.42
2023-02-09T20:54:34.756Z,104.30
2023-02-09T20:57:01.484Z,104.22
2023-02-09T20:59:29.140Z,104.18
2023-02-09T21:01:55.933Z,103.85
2023-02-09T21:04:22.815Z,103.40
2023-02-09T21:06:49.535Z,103.47
2023-02-09T21:09:16.577Z,103.78
2023-02-09T21:11:43.371Z,104.38
2023-02-09T21:14:21.642Z,104.75
2023-02-09T21:16:56.177Z,104.98
2023-02-09T21:19:24.912Z,105.49
2023-02-09T21:21:51.736Z,105.46
2023-02-09T21:24:19.180Z,106.30
2023-02-09T21:26:46.459Z,106.43
2023-02-09T21:29:14.204Z,106.90
2023-02-09T21:31:41.187Z,106.98
2023-02-09T21:34:08.042Z,107.04
2023-02-09T21:36:34.779Z,107.62
2023-02-09T21:39:01.606Z,107.24
2023-02-09T21:41:46.918Z,107.30
2023-02-09T21:44:15.014Z,106.95
2023-02-09T21:46:42.475Z,107.14
2023-02-09T21:49:11.920Z,107.04
2023-02-09T21:51:39.850Z,107.49
2023-02-09T21:54:06.797Z,108.01
2023-02-09T21:56:33.530Z,108.10
2023-02-09T21:59:00.188Z,107.87
2023-02-09T22:01:27.081Z,108.21
2023-02-09T22:03:57.197Z,108.09
2023-02-09T22:06:25.579Z,108.32
2023-02-09T22:08:52.449Z,108.64
2023-02-09T22:11:19.200Z,108.65
2023-02-09T22:13:46.165Z,109.23
2023-02-09T22:16:19.216Z,109.40
2023-02-09T22:18:46.088Z,109.30
2023-02-09T22:21:13.164Z,109.17
2023-02-09T22:23:39.847Z,109.84
2023-02-09T22:26:07.138Z,110.42
2023-02-09T22:28:36.495Z,110.21
2023-02-09T22:31:12.911Z,110.72
2023-02-09T22:33:40.208Z,110.83
2023-02-09T22:36:09.435Z,111.14
2023-02-09T22:38:36.485Z,111.14
2023-02-09T22:41:07.815Z,111.60
2023-02-09T22:43:35.015Z,111.97
2023-02-09T22:46:01.797Z,111.74
2023-02-09T22:48:28.556Z,112.39
2023-02-09T22:50:55.309Z,112.82
2023-02-09T22:53:22.068Z,112.43
2023-02-09T22:55:49.455Z,112.85
2023-02-09T22:58:16.372Z,113.08
2023-02-09T23:00:43.173Z,113.31
2023-02-09T23:03:09.994Z,112.91
2023-02-09T23:05:36.888Z,113.19
2023-02-09T23:08:04.139Z,112.77
2023-02-09T23:10:30.863Z,113.51
2023-02-09T23:12:57.588Z,113.51
2023-02-09T23:15:24.359Z,113.58
2023-02-09T23:17:51.063Z,113.93
2023-02-09T23:20:17.774Z,113.42
2023-02-09T23:22:44.632Z,113.29
2023-02-09T23:25:11.304Z,113.53
2023-02-09T23:27:38.129Z,113.01
2023-02-09T23:30:05.201Z,113.71
2023-02-09T23:32:31.980Z,113.47
2023-02-09T23:37:37.701Z,113.09
2023-02-09T23:40:05.404Z,113.29
2023-02-09T23:42:32.109Z,112.94
2023-02-09T23:44:58.817Z,112.98
2023-02-09T23:47:25.504Z,112.90
2023-02-09T23:49:52.235Z,112.64
2023-02-09T23:52:18.955Z,112.10
2023-02-09T23:54:45.598Z,112.10
2023-02-09T23:57:12.289Z,111.90
2023-02-09T23:59:39.534Z,112.29
